createdAt,value
2023-04-13T00:00:03.598Z,33.45
2023-04-13T00:01:03.610Z,34.73
2023-04-13T00:02:03.753Z,37.23
2023-04-13T00:03:03.868Z,34.96
2023-04-13T00:04:04.288Z,37.62
2023-04-13T00:05:03.782Z,34.87
2023-04-13T00:06:03.745Z,36.59
2023-04-13T00:07:03.833Z,34.64
2023-04-13T00:08:03.860Z,35.18
2023-04-13T00:09:03.857Z,34.49
2023-04-13T00:10:03.988Z,34.65
2023-04-13T00:11:03.956Z,33.79
2023-04-13T00:12:03.952Z,36.21
2023-04-13T00:13:03.989Z,35.35
2023-04-13T00:14:04.019Z,35.58
2023-04-13T00:15:04.071Z,36.56
2023-04-13T00:16:04.108Z,34.67
2023-04-13T00:17:04.193Z,35.90
2023-04-13T00:18:04.211Z,36.08
2023-04-13T00:19:04.207Z,34.70
2023-04-13T00:20:04.245Z,34.84
2023-04-13T00:21:04.288Z,35.26
2023-04-13T00:22:04.324Z,34.13
2023-04-13T00:23:04.410Z,34.83
2023-04-13T00:24:04.394Z,34.14
2023-04-13T00:25:04.437Z,35.22
2023-04-13T00:26:04.468Z,35.71
2023-04-13T00:27:04.493Z,34.70
2023-04-13T00:28:04.545Z,33.19
2023-04-13T00:29:04.596Z,32.63
2023-04-13T00:30:04.622Z,31.45
2023-04-13T00:31:04.709Z,32.60
2023-04-13T00:32:04.682Z,32.77
2023-04-13T00:33:05.476Z,32.69
2023-04-13T00:34:04.776Z,32.99
2023-04-13T00:35:04.812Z,34.14
2023-04-13T00:36:04.809Z,34.94
2023-04-13T00:37:04.862Z,32.62
2023-04-13T00:38:05.043Z,34.32
2023-04-13T00:39:04.938Z,33.14
2023-04-13T00:40:04.985Z,32.46
2023-04-13T00:41:05.002Z,35.08
2023-04-13T00:42:05.036Z,36.02
2023-04-13T00:43:05.154Z,35.35
2023-04-13T00:44:05.068Z,33.36
2023-04-13T00:45:05.104Z,33.11
2023-04-13T00:46:05.161Z,32.42
2023-04-13T00:47:05.196Z,32.97
2023-04-13T00:48:05.240Z,33.25
2023-04-13T00:49:05.256Z,34.04
2023-04-13T00:50:05.353Z,33.73
2023-04-13T00:51:05.323Z,32.78
2023-04-13T00:52:05.381Z,31.88
2023-04-13T00:53:06.834Z,34.52
2023-04-13T00:54:05.373Z,34.74
2023-04-13T00:55:05.356Z,35.31
2023-04-13T00:56:05.351Z,33.09
2023-04-13T00:57:05.367Z,32.95
2023-04-13T00:58:05.346Z,32.77
2023-04-13T00:59:05.408Z,31.89
2023-04-13T01:00:05.334Z,34.39
2023-04-13T01:01:05.359Z,33.85
2023-04-13T01:02:05.653Z,32.42
2023-04-13T01:03:05.400Z,34.38
2023-04-13T01:04:05.378Z,32.66
2023-04-13T01:05:05.293Z,32.81
2023-04-13T01:06:05.290Z,32.86
2023-04-13T01:07:05.276Z,29.81
2023-04-13T01:08:05.281Z,32.54
2023-04-13T01:09:05.290Z,31.89
2023-04-13T01:10:05.257Z,31.98
2023-04-13T01:11:05.274Z,33.45
2023-04-13T01:12:05.251Z,33.68
2023-04-13T01:13:05.253Z,32.62
2023-04-13T01:14:05.232Z,31.82
2023-04-13T01:15:05.232Z,32.71
2023-04-13T01:16:05.253Z,33.07
2023-04-13T01:17:05.212Z,29.31
2023-04-13T01:18:05.207Z,33.47
2023-04-13T01:19:05.219Z,31.81
2023-04-13T01:20:05.193Z,31.74
2023-04-13T01:21:05.173Z,28.95
2023-04-13T01:22:05.174Z,30.81
2023-04-13T01:23:05.159Z,32.16
2023-04-13T01:24:05.199Z,32.91
2023-04-13T01:25:05.170Z,35.57
2023-04-13T01:26:05.179Z,32.21
2023-04-13T01:27:05.142Z,30.61
2023-04-13T01:28:05.136Z,28.68
2023-04-13T01:29:05.131Z,30.15
2023-04-13T01:30:05.229Z,30.28
2023-04-13T01:31:05.185Z,28.93
2023-04-13T01:32:05.156Z,28.46
2023-04-13T01:33:05.173Z,30.72
2023-04-13T01:34:05.153Z,30.03
2023-04-13T01:35:05.095Z,30.17
2023-04-13T01:36:05.092Z,28.29
2023-04-13T01:37:05.069Z,28.76
2023-04-13T01:38:05.113Z,31.90
2023-04-13T01:39:05.111Z,30.28
2023-04-13T01:40:05.202Z,31.12
2023-04-13T01:41:05.238Z,30.52
2023-04-13T01:42:05.239Z,28.32
2023-04-13T01:43:05.336Z,30.73
2023-04-13T01:44:05.325Z,31.78
2023-04-13T01:45:05.391Z,29.80
2023-04-13T01:46:05.614Z,30.46
2023-04-13T01:47:05.455Z,32.17
2023-04-13T01:48:05.495Z,31.02
2023-04-13T01:49:05.531Z,32.91
2023-04-13T01:50:05.576Z,29.96
2023-04-13T01:51:05.684Z,31.52
2023-04-13T01:52:05.689Z,30.41
2023-04-13T01:53:05.743Z,30.59
2023-04-13T01:54:05.788Z,28.75
2023-04-13T01:55:05.832Z,28.02
2023-04-13T01:56:05.898Z,31.64
2023-04-13T01:57:05.940Z,30.67
2023-04-13T01:58:05.956Z,29.35
2023-04-13T01:59:05.998Z,28.86
2023-04-13T02:00:06.060Z,25.78
2023-04-13T02:01:06.170Z,27.85
2023-04-13T02:02:06.218Z,29.12
2023-04-13T02:03:06.300Z,28.92
2023-04-13T02:04:06.318Z,27.80
2023-04-13T02:05:06.270Z,31.03
2023-04-13T02:06:06.326Z,29.52
2023-04-13T02:07:06.345Z,29.60
2023-04-13T02:08:06.408Z,30.42
2023-04-13T02:09:06.463Z,28.99
2023-04-13T02:10:06.528Z,31.94
2023-04-13T02:11:06.552Z,28.47
2023-04-13T02:12:06.602Z,33.56
2023-04-13T02:13:06.628Z,28.34
2023-04-13T02:14:06.748Z,28.41
2023-04-13T02:15:06.743Z,30.13
2023-04-13T02:16:06.835Z,33.44
2023-04-13T02:17:06.872Z,29.30
2023-04-13T02:18:06.877Z,30.42
2023-04-13T02:19:06.958Z,28.84
2023-04-13T02:20:06.983Z,27.95
2023-04-13T02:21:07.061Z,31.08
2023-04-13T02:22:07.150Z,29.78
2023-04-13T02:23:07.154Z,29.47
2023-04-13T02:24:07.210Z,31.43
2023-04-13T02:25:07.231Z,29.48
2023-04-13T02:26:07.261Z,28.54
2023-04-13T02:27:07.302Z,26.23
2023-04-13T02:28:07.328Z,31.98
2023-04-13T02:29:07.383Z,27.66
2023-04-13T02:30:07.427Z,28.45
2023-04-13T02:31:07.503Z,27.85
2023-04-13T02:32:07.545Z,30.41
2023-04-13T02:33:07.570Z,26.46
2023-04-13T02:34:07.619Z,29.31
2023-04-13T02:35:07.680Z,30.20
2023-04-13T02:36:07.747Z,30.61
2023-04-13T02:37:07.775Z,28.73
2023-04-13T02:38:07.839Z,26.34
2023-04-13T02:39:07.903Z,27.27
2023-04-13T02:40:07.913Z,25.63
2023-04-13T02:41:07.993Z,27.51
2023-04-13T02:42:08.003Z,27.49
2023-04-13T02:43:08.052Z,29.54
2023-04-13T02:44:08.122Z,28.25
2023-04-13T02:45:08.157Z,30.22
2023-04-13T02:46:08.216Z,33.97
2023-04-13T02:47:08.231Z,29.52
2023-04-13T02:48:08.298Z,29.78
2023-04-13T02:49:08.344Z,29.87
2023-04-13T02:50:08.420Z,26.50
2023-04-13T02:51:08.481Z,30.52
2023-04-13T02:52:08.505Z,29.99
2023-04-13T02:53:08.557Z,29.10
2023-04-13T02:54:08.587Z,29.03
2023-04-13T02:55:08.648Z,27.85
2023-04-13T02:56:08.700Z,29.81
2023-04-13T02:57:08.736Z,28.63
2023-04-13T02:58:08.853Z,28.89
2023-04-13T02:59:08.868Z,31.78
2023-04-13T03:00:08.924Z,28.72
2023-04-13T03:01:09.004Z,31.06
2023-04-13T03:02:09.051Z,30.60
2023-04-13T03:03:09.167Z,32.32
2023-04-13T03:04:09.121Z,28.08
2023-04-13T03:05:09.191Z,30.79
2023-04-13T03:06:09.236Z,26.76
2023-04-13T03:07:09.275Z,25.76
2023-04-13T03:08:09.338Z,29.08
2023-04-13T03:09:09.424Z,28.60
2023-04-13T03:10:09.484Z,28.38
2023-04-13T03:11:09.546Z,28.68
2023-04-13T03:12:09.572Z,29.71
2023-04-13T03:13:09.603Z,28.78
2023-04-13T03:14:09.650Z,31.59
2023-04-13T03:15:09.721Z,33.19
2023-04-13T03:16:10.004Z,25.89
2023-04-13T03:17:09.875Z,26.89
2023-04-13T03:18:10.509Z,28.71
2023-04-13T03:19:09.905Z,26.40
2023-04-13T03:20:09.980Z,29.44
2023-04-13T03:21:10.043Z,30.99
2023-04-13T03:22:10.059Z,27.98
2023-04-13T03:23:10.180Z,31.52
2023-04-13T03:24:10.284Z,32.26
2023-04-13T03:25:10.225Z,30.03
2023-04-13T03:26:10.289Z,29.33
2023-04-13T03:27:10.347Z,29.98
2023-04-13T03:28:10.411Z,31.30
2023-04-13T03:29:10.435Z,30.00
2023-04-13T03:30:10.521Z,26.76
2023-04-13T03:31:10.564Z,28.38
2023-04-13T03:32:10.611Z,26.86
2023-04-13T03:33:10.676Z,29.84
2023-04-13T03:34:10.767Z,30.16
2023-04-13T03:35:10.788Z,27.57
2023-04-13T03:36:10.850Z,27.42
2023-04-13T03:37:10.917Z,27.89
2023-04-13T03:38:10.975Z,28.44
2023-04-13T03:39:11.048Z,30.34
2023-04-13T03:40:11.089Z,31.32
2023-04-13T03:41:11.546Z,26.71
2023-04-13T03:42:11.173Z,28.21
2023-04-13T03:43:11.207Z,30.14
2023-04-13T03:44:11.298Z,31.31
2023-04-13T03:45:11.352Z,27.22
2023-04-13T03:46:11.449Z,28.70
2023-04-13T03:47:11.458Z,29.56
2023-04-13T03:48:11.484Z,31.36
2023-04-13T03:49:11.583Z,28.80
2023-04-13T03:50:11.620Z,31.30
2023-04-13T03:51:11.680Z,32.50
2023-04-13T03:52:11.776Z,31.85
2023-04-13T03:53:11.769Z,32.17
2023-04-13T03:54:11.962Z,30.56
2023-04-13T03:55:11.909Z,29.53
2023-04-13T03:56:11.934Z,31.76
2023-04-13T03:57:12.020Z,32.31
2023-04-13T03:58:12.055Z,30.17
2023-04-13T03:59:12.087Z,29.00
2023-04-13T04:00:12.146Z,30.14
2023-04-13T04:01:12.196Z,30.57
2023-04-13T04:02:12.309Z,32.35
2023-04-13T04:03:12.385Z,30.96
2023-04-13T04:04:12.504Z,26.94
2023-04-13T04:05:12.463Z,29.51
2023-04-13T04:06:12.455Z,31.09
2023-04-13T04:07:12.541Z,32.47
2023-04-13T04:08:12.557Z,29.54
2023-04-13T04:09:12.643Z,32.89
2023-04-13T04:10:14.538Z,31.03
2023-04-13T04:11:12.727Z,33.60
2023-04-13T04:12:14.422Z,32.38
2023-04-13T04:13:12.820Z,26.98
2023-04-13T04:14:12.881Z,28.27
2023-04-13T04:15:12.939Z,26.69
2023-04-13T04:16:13.061Z,30.78
2023-04-13T04:17:13.044Z,30.81
2023-04-13T04:18:13.153Z,32.41
2023-04-13T04:19:13.149Z,29.26
2023-04-13T04:20:13.176Z,28.68
2023-04-13T04:21:13.224Z,27.74
2023-04-13T04:22:13.276Z,29.31
2023-04-13T04:23:13.320Z,34.40
2023-04-13T04:24:13.371Z,30.11
2023-04-13T04:25:13.438Z,26.29
2023-04-13T04:26:13.487Z,26.85
2023-04-13T04:27:13.559Z,29.02
2023-04-13T04:28:13.600Z,30.82
2023-04-13T04:29:13.681Z,28.11
2023-04-13T04:30:13.689Z,28.86
2023-04-13T04:31:13.842Z,26.88
2023-04-13T04:32:14.014Z,31.62
2023-04-13T04:33:13.836Z,29.81
2023-04-13T04:34:13.919Z,30.75
2023-04-13T04:35:13.954Z,28.20
2023-04-13T04:36:14.113Z,30.70
2023-04-13T04:37:20.298Z,27.36
2023-04-13T04:38:15.058Z,27.62
2023-04-13T04:39:14.056Z,27.86
2023-04-13T04:40:14.085Z,28.48
2023-04-13T04:41:14.023Z,29.32
2023-04-13T04:42:14.058Z,31.91
2023-04-13T04:43:14.025Z,31.87
2023-04-13T04:44:14.098Z,28.28
2023-04-13T04:45:14.155Z,26.63
2023-04-13T04:46:15.925Z,28.89
2023-04-13T04:47:14.252Z,30.89
2023-04-13T04:48:14.319Z,25.63
2023-04-13T04:49:14.356Z,29.84
2023-04-13T04:50:14.491Z,29.14
2023-04-13T04:51:14.484Z,31.38
2023-04-13T04:52:14.514Z,30.08
2023-04-13T04:53:14.563Z,30.90
2023-04-13T04:54:14.631Z,28.01
2023-04-13T04:55:14.703Z,30.72
2023-04-13T04:56:14.776Z,30.91
2023-04-13T04:57:14.846Z,31.98
2023-04-13T04:58:14.865Z,27.30
2023-04-13T04:59:14.943Z,28.35
2023-04-13T05:00:15.029Z,28.10
2023-04-13T05:01:15.047Z,28.64
2023-04-13T05:02:15.102Z,25.89
2023-04-13T05:03:15.162Z,28.49
2023-04-13T05:04:15.299Z,28.36
2023-04-13T05:05:15.294Z,29.20
2023-04-13T05:06:15.335Z,30.78
2023-04-13T05:07:15.369Z,30.22
2023-04-13T05:08:15.410Z,29.60
2023-04-13T05:09:15.479Z,28.28
2023-04-13T05:10:15.546Z,29.17
2023-04-13T05:11:15.645Z,25.53
2023-04-13T05:12:15.645Z,27.54
2023-04-13T05:13:15.710Z,29.38
2023-04-13T05:14:15.747Z,27.89
2023-04-13T05:15:15.795Z,30.58
2023-04-13T05:16:15.911Z,29.97
2023-04-13T05:17:15.936Z,27.46
2023-04-13T05:18:15.986Z,30.03
2023-04-13T05:19:16.019Z,25.08
2023-04-13T05:20:16.159Z,31.69
2023-04-13T05:21:16.195Z,29.70
2023-04-13T05:22:16.221Z,32.00
2023-04-13T05:23:16.464Z,29.70
2023-04-13T05:24:16.332Z,29.20
2023-04-13T05:25:16.388Z,31.22
2023-04-13T05:26:16.576Z,31.59
2023-04-13T05:27:16.635Z,32.67
2023-04-13T05:28:16.559Z,30.80
2023-04-13T05:29:16.681Z,33.09
2023-04-13T05:30:16.658Z,30.10
2023-04-13T05:31:16.737Z,31.11
2023-04-13T05:32:16.769Z,30.06
2023-04-13T05:33:16.944Z,30.48
2023-04-13T05:34:16.891Z,27.64
2023-04-13T05:35:16.903Z,30.17
2023-04-13T05:36:17.083Z,28.11
2023-04-13T05:37:16.999Z,29.37
2023-04-13T05:38:17.000Z,32.70
2023-04-13T05:39:17.089Z,33.56
2023-04-13T05:40:20.143Z,38.53
2023-04-13T05:41:17.572Z,47.41
2023-04-13T05:42:17.068Z,48.49
2023-04-13T05:43:17.062Z,54.83
2023-04-13T05:44:17.079Z,56.51
2023-04-13T05:45:17.354Z,56.64
2023-04-13T05:46:17.106Z,63.61
2023-04-13T05:47:17.092Z,60.13
2023-04-13T05:48:17.048Z,78.15
2023-04-13T05:49:16.985Z,79.77
2023-04-13T05:50:17.005Z,94.01
2023-04-13T05:51:16.999Z,94.45
2023-04-13T05:52:17.020Z,92.36
2023-04-13T05:53:17.026Z,90.63
2023-04-13T05:54:16.991Z,96.88
2023-04-13T05:55:17.001Z,105.96
2023-04-13T05:56:16.971Z,110.78
2023-04-13T05:57:16.965Z,105.66
2023-04-13T05:58:16.962Z,110.48
2023-04-13T05:59:16.958Z,114.61
2023-04-13T06:00:16.922Z,131.39
2023-04-13T06:01:16.907Z,143.12
2023-04-13T06:02:17.003Z,146.87
2023-04-13T06:03:17.140Z,149.54
2023-04-13T06:04:17.058Z,143.95
2023-04-13T06:05:16.961Z,141.49
2023-04-13T06:06:16.918Z,144.02
2023-04-13T06:07:16.891Z,146.23
2023-04-13T06:08:16.901Z,149.95
2023-04-13T06:09:16.879Z,150.50
2023-04-13T06:10:16.903Z,152.18
2023-04-13T06:11:16.897Z,156.25
2023-04-13T06:12:16.875Z,153.32
2023-04-13T06:13:16.823Z,153.92
2023-04-13T06:14:16.858Z,159.29
2023-04-13T06:15:16.810Z,158.43
2023-04-13T06:16:16.880Z,162.03
2023-04-13T06:17:16.978Z,162.25
2023-04-13T06:18:16.973Z,164.04
2023-04-13T06:19:16.915Z,166.14
2023-04-13T06:20:16.970Z,166.56
2023-04-13T06:21:17.034Z,168.30
2023-04-13T06:22:17.045Z,164.91
2023-04-13T06:23:17.059Z,169.07
2023-04-13T06:24:17.096Z,167.76
2023-04-13T06:25:17.149Z,172.95
2023-04-13T06:26:17.220Z,174.22
2023-04-13T06:27:17.201Z,172.98
2023-04-13T06:28:17.218Z,174.78
2023-04-13T06:29:17.265Z,178.25
2023-04-13T06:30:17.310Z,175.84
2023-04-13T06:31:17.358Z,180.31
2023-04-13T06:32:17.370Z,178.98
2023-04-13T06:33:17.359Z,180.27
2023-04-13T06:34:17.380Z,183.09
2023-04-13T06:35:17.466Z,187.90
2023-04-13T06:36:17.568Z,184.10
2023-04-13T06:37:17.587Z,181.21
2023-04-13T06:38:17.507Z,184.29
2023-04-13T06:39:17.568Z,181.02
2023-04-13T06:40:17.560Z,176.07
2023-04-13T06:41:17.714Z,178.16
2023-04-13T06:42:17.639Z,176.47
2023-04-13T06:43:29.248Z,147.58
2023-04-13T06:44:18.647Z,83.95
2023-04-13T06:45:17.630Z,30.21
2023-04-13T06:46:19.708Z,3.16
2023-04-13T06:47:17.608Z,0.00
2023-04-13T06:48:17.594Z,0.00
2023-04-13T06:49:17.581Z,0.00
2023-04-13T06:50:17.576Z,0.00
2023-04-13T06:51:17.680Z,0.00
2023-04-13T06:52:17.587Z,40.48
2023-04-13T06:53:17.593Z,45.75
2023-04-13T06:54:17.558Z,57.19
2023-04-13T06:55:17.592Z,88.10
2023-04-13T06:56:18.061Z,123.56
2023-04-13T06:57:17.584Z,129.02
2023-04-13T06:58:17.552Z,110.84
2023-04-13T06:59:17.541Z,124.81
2023-04-13T07:00:28.930Z,127.20
2023-04-13T07:01:18.578Z,128.38
2023-04-13T07:02:17.621Z,130.39
2023-04-13T07:03:17.627Z,137.00
2023-04-13T07:04:17.621Z,136.84
2023-04-13T07:05:17.486Z,162.84
2023-04-13T07:06:17.534Z,156.00
2023-04-13T07:07:17.618Z,156.84
2023-04-13T07:08:17.677Z,145.34
2023-04-13T07:09:17.789Z,153.08
2023-04-13T07:10:17.748Z,157.80
2023-04-13T07:11:17.821Z,139.83
2023-04-13T07:12:17.895Z,151.60
2023-04-13T07:13:17.952Z,157.22
2023-04-13T07:14:18.033Z,156.99
2023-04-13T07:15:18.037Z,159.46
2023-04-13T07:16:18.181Z,154.87
2023-04-13T07:17:18.622Z,161.21
2023-04-13T07:18:18.164Z,168.58
2023-04-13T07:19:18.200Z,164.53
2023-04-13T07:20:18.251Z,161.62
2023-04-13T07:21:18.271Z,149.43
2023-04-13T07:22:18.322Z,154.75
2023-04-13T07:23:18.344Z,148.64
2023-04-13T07:24:18.408Z,140.89
2023-04-13T07:25:18.452Z,152.39
2023-04-13T07:26:18.505Z,157.15
2023-04-13T07:28:37.820Z,25.00
2023-04-13T07:29:37.249Z,25.00
2023-04-13T07:30:37.295Z,25.00
2023-04-13T07:31:37.337Z,25.00
2023-04-13T07:32:37.821Z,25.00
2023-04-13T07:33:38.286Z,31.15
2023-04-13T07:34:37.491Z,25.00
2023-04-13T07:35:37.625Z,41.93
2023-04-13T07:36:37.604Z,42.56
2023-04-13T07:37:37.892Z,41.66
2023-04-13T07:38:37.703Z,51.35
2023-04-13T07:39:37.766Z,19.10
2023-04-13T07:40:37.904Z,30.82
2023-04-13T07:41:37.850Z,34.48
2023-04-13T07:42:38.322Z,51.86
2023-04-13T07:43:37.965Z,56.41
2023-04-13T07:44:37.988Z,41.56
2023-04-13T07:45:38.024Z,11.67
2023-04-13T07:46:38.012Z,24.56
2023-04-13T07:47:38.046Z,19.27
2023-04-13T07:48:38.071Z,26.26
2023-04-13T07:49:38.054Z,23.13
2023-04-13T07:50:38.022Z,69.53
2023-04-13T07:51:38.044Z,41.79
2023-04-13T07:52:38.306Z,29.27
2023-04-13T07:53:38.064Z,46.01
2023-04-13T07:54:38.057Z,68.23
2023-04-13T07:55:38.074Z,48.56
2023-04-13T07:56:38.131Z,54.06
2023-04-13T07:57:38.318Z,37.77
2023-04-13T07:58:38.110Z,19.65
2023-04-13T07:59:38.141Z,19.95
2023-04-13T08:00:38.162Z,30.27
2023-04-13T08:01:38.168Z,25.76
2023-04-13T08:02:38.325Z,45.61
2023-04-13T08:03:38.350Z,30.50
2023-04-13T08:04:38.467Z,37.79
2023-04-13T08:05:38.275Z,82.68
2023-04-13T08:06:38.270Z,84.15
2023-04-13T08:07:38.300Z,64.88
2023-04-13T08:08:38.314Z,76.17
2023-04-13T08:09:38.334Z,67.40
2023-04-13T08:10:38.355Z,65.49
2023-04-13T08:11:38.359Z,64.57
2023-04-13T08:12:38.792Z,34.43
2023-04-13T08:13:38.354Z,58.42
2023-04-13T08:14:38.357Z,46.01
2023-04-13T08:15:38.385Z,25.00
2023-04-13T08:16:38.445Z,78.12
2023-04-13T08:17:38.899Z,46.45
2023-04-13T08:18:38.411Z,57.50
2023-04-13T08:19:38.433Z,16.58
2023-04-13T08:20:38.435Z,37.60
2023-04-13T08:21:38.456Z,83.06
2023-04-13T08:22:38.841Z,153.04
2023-04-13T08:23:39.302Z,187.83
2023-04-13T08:24:38.495Z,211.02
2023-04-13T08:25:38.499Z,200.58
2023-04-13T08:26:38.567Z,209.65
2023-04-13T08:27:39.319Z,215.07
2023-04-13T08:28:38.506Z,211.73
2023-04-13T08:29:38.571Z,215.23
2023-04-13T08:30:38.557Z,201.20
2023-04-13T08:31:38.777Z,158.48
2023-04-13T08:32:38.871Z,164.27
2023-04-13T08:33:38.683Z,175.45
2023-04-13T08:34:38.660Z,172.34
2023-04-13T08:35:38.705Z,183.31
2023-04-13T08:36:39.320Z,167.27
2023-04-13T08:37:38.832Z,180.03
2023-04-13T08:38:38.677Z,166.65
2023-04-13T08:39:38.718Z,163.79
2023-04-13T08:40:38.684Z,200.50
2023-04-13T08:41:40.438Z,198.42
2023-04-13T08:42:38.808Z,185.04
2023-04-13T08:43:40.310Z,154.14
2023-04-13T08:44:38.691Z,204.91
2023-04-13T08:45:38.672Z,218.66
2023-04-13T08:46:38.654Z,250.00
2023-04-13T08:47:38.690Z,250.74
2023-04-13T08:48:50.366Z,250.00
2023-04-13T08:49:39.660Z,250.44
2023-04-13T08:50:38.662Z,251.99
2023-04-13T08:51:38.636Z,256.56
2023-04-13T08:52:38.876Z,262.36
2023-04-13T08:53:38.640Z,267.44
2023-04-13T08:54:38.619Z,244.59
2023-04-13T08:55:38.590Z,226.95
2023-04-13T08:56:45.993Z,225.52
2023-04-13T08:57:39.822Z,219.12
2023-04-13T08:58:38.581Z,213.35
2023-04-13T08:59:38.703Z,221.64
2023-04-13T09:00:38.581Z,186.34
2023-04-13T09:01:38.680Z,184.78
2023-04-13T09:02:44.175Z,195.02
2023-04-13T09:03:39.724Z,184.52
2023-04-13T09:04:38.777Z,192.76
2023-04-13T09:05:38.510Z,175.93
2023-04-13T09:06:38.559Z,161.44
2023-04-13T09:07:38.613Z,161.13
2023-04-13T09:08:38.659Z,158.92
2023-04-13T09:09:38.673Z,156.09
2023-04-13T09:10:38.772Z,134.56
2023-04-13T09:11:38.774Z,145.27
2023-04-13T09:12:38.841Z,160.92
2023-04-13T09:13:38.804Z,137.89
2023-04-13T09:14:38.796Z,137.29
2023-04-13T09:15:38.817Z,122.24
2023-04-13T09:16:38.891Z,107.48
2023-04-13T09:17:38.839Z,119.02
2023-04-13T09:18:38.853Z,125.12
2023-04-13T09:19:38.970Z,119.02
2023-04-13T09:20:38.839Z,129.45
2023-04-13T09:21:38.805Z,115.80
2023-04-13T09:22:38.824Z,110.22
2023-04-13T09:23:38.847Z,118.20
2023-04-13T09:24:38.906Z,134.66
2023-04-13T09:25:38.795Z,147.51
2023-04-13T09:26:38.832Z,137.01
2023-04-13T09:27:38.822Z,124.14
2023-04-13T09:28:38.836Z,110.06
2023-04-13T09:29:38.849Z,115.22
2023-04-13T09:30:38.962Z,104.79
2023-04-13T09:31:38.902Z,115.35
2023-04-13T09:32:39.382Z,133.58
2023-04-13T09:33:38.897Z,159.97
2023-04-13T09:34:38.919Z,186.48
2023-04-13T09:35:38.944Z,196.70
2023-04-13T09:36:49.673Z,210.94
2023-04-13T09:37:40.384Z,211.45
2023-04-13T09:38:39.026Z,213.51
2023-04-13T09:39:38.995Z,216.76
2023-04-13T09:40:39.045Z,222.82
2023-04-13T09:41:38.947Z,232.56
2023-04-13T09:42:39.351Z,233.37
2023-04-13T09:43:39.378Z,234.65
2023-04-13T09:44:38.932Z,233.97
2023-04-13T09:45:39.048Z,238.01
2023-04-13T09:46:39.076Z,235.71
2023-04-13T09:47:39.125Z,226.24
2023-04-13T09:48:39.168Z,224.90
2023-04-13T09:49:39.331Z,226.43
2023-04-13T09:50:39.276Z,226.17
2023-04-13T09:51:39.362Z,220.46
2023-04-13T09:52:39.390Z,200.63
2023-04-13T09:53:39.366Z,216.53
2023-04-13T09:54:39.485Z,221.70
2023-04-13T09:55:39.462Z,219.49
2023-04-13T09:56:39.566Z,221.77
2023-04-13T09:57:39.532Z,221.93
2023-04-13T09:58:39.614Z,225.11
2023-04-13T09:59:39.613Z,220.55
2023-04-13T10:00:39.634Z,214.67
2023-04-13T10:01:39.736Z,214.84
2023-04-13T10:02:39.817Z,210.20
2023-04-13T10:03:39.852Z,201.67
2023-04-13T10:04:39.806Z,203.45
2023-04-13T10:05:55.216Z,199.19
2023-04-13T10:06:40.785Z,199.40
2023-04-13T10:07:39.832Z,196.03
2023-04-13T10:08:39.801Z,197.58
2023-04-13T10:09:39.772Z,185.23
2023-04-13T10:10:39.843Z,180.87
2023-04-13T10:11:39.821Z,174.22
2023-04-13T10:12:39.760Z,184.43
2023-04-13T10:13:39.728Z,171.64
2023-04-13T10:14:39.731Z,190.09
2023-04-13T10:15:39.837Z,199.06
2023-04-13T10:16:39.846Z,204.35
2023-04-13T10:17:39.815Z,208.72
2023-04-13T10:18:39.784Z,190.61
2023-04-13T10:19:39.749Z,197.50
2023-04-13T10:20:39.767Z,198.70
2023-04-13T10:21:39.852Z,198.12
2023-04-13T10:22:39.798Z,202.75
2023-04-13T10:23:39.850Z,191.17
2023-04-13T10:24:39.887Z,200.00
2023-04-13T10:25:40.032Z,194.49
2023-04-13T10:26:39.979Z,197.25
2023-04-13T10:27:39.982Z,183.43
2023-04-13T10:28:40.034Z,184.34
2023-04-13T10:29:40.100Z,190.14
2023-04-13T10:30:40.115Z,201.14
2023-04-13T10:31:40.191Z,210.65
2023-04-13T10:32:40.876Z,230.46
2023-04-13T10:33:41.662Z,233.48
2023-04-13T10:34:40.184Z,245.30
2023-04-13T10:35:42.762Z,250.00
2023-04-13T10:36:40.139Z,250.20
2023-04-13T10:37:40.371Z,245.58
2023-04-13T10:38:40.137Z,243.61
2023-04-13T10:39:40.141Z,238.97
2023-04-13T10:40:40.893Z,235.49
2023-04-13T10:41:40.096Z,238.25
2023-04-13T10:42:51.294Z,244.26
2023-04-13T10:43:41.113Z,244.63
2023-04-13T10:44:40.090Z,246.14
2023-04-13T10:45:40.078Z,246.96
2023-04-13T10:46:40.094Z,245.13
2023-04-13T10:47:40.421Z,247.84
2023-04-13T10:48:40.086Z,244.50
2023-04-13T10:49:40.094Z,235.74
2023-04-13T10:50:40.892Z,237.71
2023-04-13T10:51:40.161Z,236.11
2023-04-13T10:52:40.429Z,235.58
2023-04-13T10:53:40.127Z,234.72
2023-04-13T10:54:40.431Z,223.64
2023-04-13T10:55:40.164Z,223.03
2023-04-13T10:56:41.019Z,219.26
2023-04-13T10:57:40.888Z,231.87
2023-04-13T10:58:40.234Z,233.02
2023-04-13T10:59:55.437Z,226.58
2023-04-13T11:00:46.138Z,226.92
2023-04-13T11:01:42.902Z,227.03
2023-04-13T11:02:42.073Z,226.74
2023-04-13T11:03:47.392Z,226.78
2023-04-13T11:04:41.468Z,226.94
2023-04-13T11:05:40.427Z,228.23
2023-04-13T11:06:40.417Z,230.04
2023-04-13T11:07:40.445Z,232.97
2023-04-13T11:08:40.508Z,241.67
2023-04-13T11:09:40.517Z,248.40
2023-04-13T11:10:40.529Z,248.25
2023-04-13T11:11:40.568Z,245.25
2023-04-13T11:12:40.629Z,245.81
2023-04-13T11:13:40.674Z,248.51
2023-04-13T11:14:40.651Z,248.12
2023-04-13T11:15:40.688Z,250.15
2023-04-13T11:16:40.773Z,248.76
2023-04-13T11:17:40.779Z,246.82
2023-04-13T11:18:40.726Z,249.87
2023-04-13T11:19:40.771Z,248.44
2023-04-13T11:20:40.779Z,249.67
2023-04-13T11:21:40.815Z,248.95
2023-04-13T11:22:47.493Z,248.30
2023-04-13T11:23:41.792Z,248.52
2023-04-13T11:24:40.765Z,248.84
2023-04-13T11:25:40.783Z,248.69
2023-04-13T11:26:42.323Z,249.39
2023-04-13T11:27:40.895Z,253.36
2023-04-13T11:28:40.891Z,244.23
2023-04-13T11:29:40.957Z,247.47
2023-04-13T11:30:40.958Z,244.25
2023-04-13T11:31:41.117Z,246.58
2023-04-13T11:32:41.105Z,245.37
2023-04-13T11:33:41.091Z,247.24
2023-04-13T11:34:41.190Z,245.68
2023-04-13T11:35:41.186Z,248.03
2023-04-13T11:36:41.176Z,246.49
2023-04-13T11:37:41.223Z,243.86
2023-04-13T11:38:41.378Z,243.18
2023-04-13T11:39:41.415Z,244.08
2023-04-13T11:40:41.331Z,244.04
2023-04-13T11:41:41.380Z,244.17
2023-04-13T11:42:42.391Z,246.27
2023-04-13T11:43:41.462Z,247.10
2023-04-13T11:44:41.485Z,246.31
2023-04-13T11:45:41.552Z,248.38
2023-04-13T11:46:41.696Z,248.18
2023-04-13T11:47:41.665Z,248.99
2023-04-13T11:48:41.933Z,247.24
2023-04-13T11:49:41.927Z,248.18
2023-04-13T11:50:41.743Z,247.60
2023-04-13T11:51:41.745Z,247.31
2023-04-13T11:52:41.779Z,247.82
2023-04-13T11:53:41.849Z,247.65
2023-04-13T11:54:41.884Z,247.77
2023-04-13T11:55:52.884Z,250.00
2023-04-13T11:56:42.862Z,250.11
2023-04-13T11:57:41.896Z,248.20
2023-04-13T11:58:41.968Z,246.40
2023-04-13T11:59:41.860Z,246.31
2023-04-13T12:00:41.841Z,246.51
2023-04-13T12:02:54.693Z,244.70
2023-04-13T12:04:42.252Z,245.05
2023-04-13T12:05:42.264Z,245.52
2023-04-13T12:06:42.405Z,245.45
2023-04-13T12:07:42.908Z,246.67
2023-04-13T12:08:42.733Z,242.28
2023-04-13T12:09:55.168Z,238.27
2023-04-13T12:11:02.260Z,238.45
2023-04-13T12:11:48.480Z,238.52
2023-04-13T12:12:51.270Z,238.76
2023-04-13T12:15:49.583Z,238.61
2023-04-13T12:17:49.448Z,238.51
2023-04-13T12:18:43.675Z,238.55
2023-04-13T12:19:43.877Z,237.36
2023-04-13T12:20:42.185Z,231.68
2023-04-13T12:21:42.667Z,233.00
2023-04-13T12:22:52.519Z,227.74
2023-04-13T12:23:43.211Z,229.30
2023-04-13T12:24:42.900Z,224.07
2023-04-13T12:25:42.398Z,218.63
2023-04-13T12:27:43.118Z,232.30
2023-04-13T12:28:42.134Z,229.17
2023-04-13T12:29:42.907Z,225.88
2023-04-13T12:30:42.108Z,228.09
2023-04-13T12:31:42.143Z,222.21
2023-04-13T12:32:42.140Z,225.66
2023-04-13T12:33:42.104Z,223.43
2023-04-13T12:34:42.098Z,226.27
2023-04-13T12:35:42.078Z,225.12
2023-04-13T12:36:42.063Z,224.76
2023-04-13T12:37:42.048Z,224.69
2023-04-13T12:38:42.088Z,227.22
2023-04-13T12:39:42.083Z,224.11
2023-04-13T12:40:42.033Z,222.90
2023-04-13T12:41:42.015Z,224.42
2023-04-13T12:42:41.997Z,224.88
2023-04-13T12:43:42.980Z,223.99
2023-04-13T12:44:42.008Z,223.91
2023-04-13T12:45:42.009Z,226.61
2023-04-13T12:46:42.066Z,223.11
2023-04-13T12:47:42.073Z,226.07
2023-04-13T12:48:42.087Z,225.89